createdAt,value
2018-06-01T00:02:19.386Z,3.80
2018-06-01T00:04:47.089Z,4.03
2018-06-01T00:07:14.914Z,4.10
2018-06-01T00:09:42.435Z,3.93
2018-06-01T00:12:10.097Z,4.23
2018-06-01T00:14:38.032Z,3.30
2018-06-01T00:17:05.673Z,3.63
2018-06-01T00:19:33.234Z,3.20
2018-06-01T00:22:01.279Z,3.70
2018-06-01T00:24:29.037Z,3.50
2018-06-01T00:26:56.824Z,3.47
2018-06-01T00:29:24.598Z,3.00
2018-06-01T00:31:52.115Z,2.90
2018-06-01T00:34:19.679Z,2.37
2018-06-01T00:36:47.550Z,2.53
2018-06-01T00:39:15.068Z,2.43
2018-06-01T00:41:42.716Z,1.80
2018-06-01T00:44:10.549Z,1.40
2018-06-01T00:46:38.066Z,1.37
2018-06-01T00:49:05.685Z,1.33
2018-06-01T00:51:33.522Z,1.10
2018-06-01T00:54:01.044Z,1.40
2018-06-01T00:56:28.970Z,1.40
2018-06-01T00:58:56.806Z,1.27
2018-06-01T01:01:24.418Z,1.27
2018-06-01T01:03:52.022Z,1.27
2018-06-01T01:06:19.567Z,1.40
2018-06-01T01:08:47.385Z,1.40
2018-06-01T01:11:14.998Z,1.23
2018-06-01T01:13:42.782Z,1.53
2018-06-01T01:16:10.686Z,1.40
2018-06-01T01:18:38.269Z,1.53
2018-06-01T01:21:05.797Z,1.80
2018-06-01T01:23:33.661Z,1.57
2018-06-01T01:26:01.551Z,1.47
2018-06-01T01:28:29.354Z,2.00
2018-06-01T01:30:56.890Z,1.63
2018-06-01T01:33:24.912Z,1.87
2018-06-01T01:35:52.729Z,1.90
2018-06-01T01:38:20.246Z,1.73
2018-06-01T01:40:59.273Z,2.37
2018-06-01T01:43:26.798Z,1.73
2018-06-01T01:45:54.342Z,1.80
2018-06-01T01:48:22.454Z,1.83
2018-06-01T01:50:50.220Z,1.90
2018-06-01T01:53:18.562Z,2.10
2018-06-01T01:55:46.453Z,1.80
2018-06-01T01:58:14.366Z,1.90
2018-06-01T02:00:42.234Z,1.87
2018-06-01T02:03:10.077Z,1.97
2018-06-01T02:05:37.934Z,1.70
2018-06-01T02:08:05.454Z,1.77
2018-06-01T02:10:33.230Z,2.00
2018-06-01T02:13:01.367Z,2.13
2018-06-01T02:15:28.896Z,2.70
2018-06-01T02:17:56.501Z,2.03
2018-06-01T02:20:24.301Z,2.13
2018-06-01T02:22:51.785Z,2.20
2018-06-01T02:25:19.638Z,2.23
2018-06-01T02:27:47.498Z,2.20
2018-06-01T02:30:15.013Z,2.23
2018-06-01T02:32:43.021Z,2.23
2018-06-01T02:35:10.710Z,2.33
2018-06-01T02:37:38.384Z,2.30
2018-06-01T02:40:06.195Z,2.10
2018-06-01T02:42:34.167Z,2.17
2018-06-01T02:45:02.039Z,2.30
2018-06-01T02:47:29.803Z,2.63
2018-06-01T02:49:57.686Z,2.10
2018-06-01T02:52:25.501Z,1.87
2018-06-01T02:54:53.348Z,2.00
2018-06-01T02:57:20.867Z,1.93
2018-06-01T02:59:49.078Z,2.07
2018-06-01T03:02:16.986Z,2.00
2018-06-01T03:04:44.509Z,2.03
2018-06-01T03:07:12.345Z,2.30
2018-06-01T03:09:39.986Z,2.33
2018-06-01T03:12:07.578Z,2.27
2018-06-01T03:14:35.330Z,2.00
2018-06-01T03:17:03.196Z,2.60
2018-06-01T03:19:31.502Z,1.93
2018-06-01T03:21:59.542Z,2.23
2018-06-01T03:24:27.388Z,1.97
2018-06-01T03:26:54.907Z,2.53
2018-06-01T03:29:22.695Z,1.70
2018-06-01T03:31:50.808Z,1.90
2018-06-01T03:34:19.209Z,1.37
2018-06-01T03:36:46.738Z,1.50
2018-06-01T03:39:14.390Z,1.73
2018-06-01T03:41:41.938Z,2.00
2018-06-01T03:44:09.462Z,1.87
2018-06-01T03:46:37.233Z,1.63
2018-06-01T03:49:04.759Z,1.83
2018-06-01T03:51:32.284Z,1.33
2018-06-01T03:54:00.561Z,1.20
2018-06-01T03:56:28.115Z,1.20
2018-06-01T03:58:55.629Z,1.20
2018-06-01T04:01:24.400Z,0.90
2018-06-01T04:03:51.918Z,1.00
2018-06-01T04:06:20.209Z,1.10
2018-06-01T04:08:48.674Z,1.00
2018-06-01T04:11:16.342Z,0.70
2018-06-01T04:13:43.891Z,1.23
2018-06-01T04:16:11.490Z,1.23
2018-06-01T04:18:39.326Z,1.20
2018-06-01T04:21:06.845Z,1.10
2018-06-01T04:23:35.047Z,0.90
2018-06-01T04:26:02.601Z,1.03
2018-06-01T04:28:30.126Z,1.10
2018-06-01T04:30:58.041Z,1.13
2018-06-01T04:33:25.906Z,1.30
2018-06-01T04:35:53.431Z,1.17
2018-06-01T04:38:21.037Z,1.20
2018-06-01T04:40:48.885Z,1.50
2018-06-01T04:43:16.544Z,1.10
2018-06-01T04:45:44.802Z,0.97
2018-06-01T04:48:12.956Z,1.20
2018-06-01T04:50:40.474Z,1.10
2018-06-01T04:53:08.230Z,0.93
2018-06-01T04:55:36.088Z,0.90
2018-06-01T04:58:03.606Z,0.87
2018-06-01T05:00:31.426Z,1.13
2018-06-01T05:02:59.473Z,1.00
2018-06-01T05:05:27.003Z,1.10
2018-06-01T05:07:54.793Z,0.90
2018-06-01T05:10:22.671Z,1.20
2018-06-01T05:12:50.257Z,0.87
2018-06-01T05:15:18.086Z,1.10
2018-06-01T05:17:45.961Z,0.60
2018-06-01T05:20:13.488Z,0.60
2018-06-01T05:22:41.354Z,0.90
2018-06-01T05:25:09.070Z,0.70
2018-06-01T05:27:36.599Z,1.00
2018-06-01T05:30:04.194Z,1.00
2018-06-01T05:32:32.073Z,1.10
2018-06-01T05:34:59.590Z,1.10
2018-06-01T05:37:27.583Z,1.07
2018-06-01T05:39:56.142Z,1.17
2018-06-01T05:42:23.669Z,1.17
2018-06-01T05:44:51.327Z,4.03
2018-06-01T05:47:19.148Z,1.17
2018-06-01T05:49:46.683Z,1.00
2018-06-01T05:52:14.289Z,1.10
2018-06-01T05:54:42.112Z,1.27
2018-06-01T05:57:09.634Z,1.00
2018-06-01T05:59:37.394Z,1.17
2018-06-01T06:02:04.972Z,1.10
2018-06-01T06:04:32.913Z,1.03
2018-06-01T06:07:01.021Z,1.10
2018-06-01T06:09:28.694Z,1.00
2018-06-01T06:11:56.213Z,1.73
2018-06-01T06:14:23.753Z,0.93
2018-06-01T06:16:51.272Z,1.10
2018-06-01T06:19:18.786Z,1.00
2018-06-01T06:21:46.355Z,0.90
2018-06-01T06:24:14.047Z,0.80
2018-06-01T06:26:42.293Z,0.80
2018-06-01T06:29:10.293Z,1.20
2018-06-01T06:31:38.320Z,1.10
2018-06-01T06:34:06.746Z,0.80
2018-06-01T06:36:35.724Z,0.97
2018-06-01T06:39:03.394Z,1.13
2018-06-01T06:41:30.924Z,1.13
2018-06-01T06:43:58.706Z,1.03
2018-06-01T06:46:26.711Z,1.10
2018-06-01T06:48:54.242Z,0.80
2018-06-01T06:51:22.165Z,1.07
2018-06-01T06:53:49.739Z,0.90
2018-06-01T06:56:17.258Z,1.20
2018-06-01T06:58:45.122Z,0.90
2018-06-01T07:01:12.791Z,1.13
2018-06-01T07:03:40.311Z,1.20
2018-06-01T07:06:08.068Z,1.53
2018-06-01T07:08:35.587Z,1.10
2018-06-01T07:11:03.185Z,1.10
2018-06-01T07:13:31.061Z,0.80
2018-06-01T07:15:58.696Z,1.17
2018-06-01T07:18:26.381Z,1.20
2018-06-01T07:20:54.369Z,0.93
2018-06-01T07:23:22.077Z,0.90
2018-06-01T07:25:50.331Z,2.20
2018-06-01T07:28:18.085Z,0.93
2018-06-01T07:30:45.803Z,0.93
2018-06-01T07:33:13.364Z,0.90
2018-06-01T07:35:41.031Z,1.00
2018-06-01T07:38:08.547Z,1.20
2018-06-01T07:40:36.154Z,1.03
2018-06-01T07:43:03.774Z,0.80
2018-06-01T07:45:31.294Z,0.70
2018-06-01T07:47:58.816Z,1.07
2018-06-01T07:50:27.330Z,0.90
2018-06-01T07:52:54.869Z,1.20
2018-06-01T07:55:22.385Z,1.53
2018-06-01T07:57:50.505Z,0.80
2018-06-01T08:00:18.052Z,0.80
2018-06-01T08:02:46.106Z,0.80
2018-06-01T08:05:13.914Z,1.10
2018-06-01T08:07:41.558Z,0.85
2018-06-01T08:10:09.324Z,1.00
2018-06-01T08:12:36.915Z,1.10
2018-06-01T08:15:04.431Z,0.88
2018-06-01T08:17:31.943Z,0.88
2018-06-01T08:20:00.014Z,0.93
2018-06-01T08:22:27.558Z,0.98
2018-06-01T08:24:55.079Z,1.05
2018-06-01T08:27:22.942Z,1.20
2018-06-01T08:29:50.503Z,0.80
2018-06-01T08:32:18.053Z,1.02
2018-06-01T08:34:46.019Z,1.00
2018-06-01T08:37:13.647Z,1.30
2018-06-01T08:39:41.169Z,0.95
2018-06-01T08:42:09.026Z,1.02
2018-06-01T08:44:36.650Z,1.10
2018-06-01T08:47:04.165Z,0.90
2018-06-01T08:49:31.730Z,1.00
2018-06-01T08:51:59.282Z,1.35
2018-06-01T08:54:26.812Z,1.05
2018-06-01T08:56:54.434Z,1.20
2018-06-01T08:59:21.998Z,3.15
2018-06-01T09:01:49.522Z,1.27
2018-06-01T09:04:17.061Z,1.60
2018-06-01T09:06:44.916Z,1.12
2018-06-01T09:09:12.778Z,1.15
2018-06-01T09:11:40.337Z,1.00
2018-06-01T09:14:07.861Z,1.00
2018-06-01T09:16:35.395Z,0.90
2018-06-01T09:19:03.335Z,1.45
2018-06-01T09:21:30.854Z,1.45
2018-06-01T09:23:58.637Z,1.40
2018-06-01T09:26:26.198Z,1.00
2018-06-01T09:28:53.746Z,1.10
2018-06-01T09:31:21.319Z,1.00
2018-06-01T09:33:49.491Z,1.10
2018-06-01T09:36:17.005Z,1.00
2018-06-01T09:38:45.466Z,1.30
2018-06-01T09:41:13.393Z,0.80
2018-06-01T09:43:41.654Z,1.25
2018-06-01T09:46:09.177Z,1.20
2018-06-01T09:48:36.850Z,1.00
2018-06-01T09:51:04.373Z,0.90
2018-06-01T09:53:31.895Z,1.00
2018-06-01T09:55:59.600Z,0.98
2018-06-01T09:58:27.340Z,1.00
2018-06-01T10:01:01.198Z,1.10
2018-06-01T10:03:28.795Z,0.98
2018-06-01T10:05:56.318Z,1.17
2018-06-01T10:08:24.117Z,2.40
2018-06-01T10:10:51.880Z,7.80
2018-06-01T10:13:19.550Z,1.40
2018-06-01T10:15:47.716Z,0.90
2018-06-01T10:18:15.256Z,1.48
2018-06-01T10:20:43.126Z,1.23
2018-06-01T10:23:10.702Z,1.00
2018-06-01T10:25:38.360Z,0.88
2018-06-01T10:28:05.886Z,1.05
2018-06-01T10:30:34.377Z,1.25
2018-06-01T10:33:01.979Z,0.93
2018-06-01T10:35:29.490Z,1.00
2018-06-01T10:37:57.179Z,1.20
2018-06-01T10:40:25.162Z,1.15
2018-06-01T10:42:52.686Z,1.10
2018-06-01T10:45:20.660Z,0.88
2018-06-01T10:47:48.449Z,1.27
2018-06-01T10:50:16.010Z,2.70
2018-06-01T10:52:43.714Z,4.10
2018-06-01T10:55:11.272Z,1.25
2018-06-01T10:57:38.942Z,1.15
2018-06-01T11:00:07.463Z,0.98
2018-06-01T11:02:34.990Z,1.00
2018-06-01T11:05:02.816Z,0.70
2018-06-01T11:07:30.416Z,0.98
2018-06-01T11:09:57.938Z,0.88
2018-06-01T11:12:26.126Z,0.90
2018-06-01T11:14:53.706Z,0.90
2018-06-01T11:17:21.240Z,1.00
2018-06-01T11:19:48.807Z,0.88
2018-06-01T11:22:16.565Z,0.95
2018-06-01T11:24:44.096Z,1.00
2018-06-01T11:27:12.667Z,0.90
2018-06-01T11:29:40.463Z,1.10
2018-06-01T11:32:07.983Z,0.95
2018-06-01T11:34:35.497Z,0.90
2018-06-01T11:37:03.046Z,1.08
2018-06-01T11:39:30.659Z,0.80
2018-06-01T11:41:58.426Z,1.15
2018-06-01T11:44:26.285Z,1.00
2018-06-01T11:46:53.813Z,0.90
2018-06-01T11:49:22.094Z,0.90
2018-06-01T11:51:49.818Z,0.80
2018-06-01T11:54:17.433Z,0.90
2018-06-01T11:56:44.966Z,1.00
2018-06-01T11:59:12.505Z,1.00
2018-06-01T12:01:40.479Z,0.80
2018-06-01T12:04:07.983Z,0.90
2018-06-01T12:06:35.535Z,1.20
2018-06-01T12:09:03.046Z,0.90
2018-06-01T12:11:30.575Z,0.98
2018-06-01T12:13:58.250Z,0.70
2018-06-01T12:16:26.103Z,0.90
2018-06-01T12:18:53.622Z,0.80
2018-06-01T12:21:21.258Z,0.73
2018-06-01T12:23:48.790Z,0.95
2018-06-01T12:26:16.346Z,1.00
2018-06-01T12:28:44.214Z,0.88
2018-06-01T12:31:11.749Z,0.70
2018-06-01T12:33:39.518Z,1.10
2018-06-01T12:36:07.164Z,0.80
2018-06-01T12:38:34.973Z,0.93
2018-06-01T12:41:02.813Z,0.90
2018-06-01T12:43:30.949Z,0.98
2018-06-01T12:45:58.474Z,0.98
2018-06-01T12:48:26.456Z,0.88
2018-06-01T12:50:54.864Z,0.90
2018-06-01T12:53:22.426Z,0.93
2018-06-01T12:55:50.319Z,0.80
2018-06-01T12:58:18.001Z,0.68
2018-06-01T13:00:45.521Z,1.10
2018-06-01T13:03:13.089Z,0.73
2018-06-01T13:05:40.826Z,0.60
2018-06-01T13:08:08.361Z,0.90
2018-06-01T13:10:36.285Z,0.73
2018-06-01T13:13:03.838Z,1.05
2018-06-01T13:15:31.599Z,0.85
2018-06-01T13:17:59.320Z,0.80
2018-06-01T13:20:26.888Z,0.90
2018-06-01T13:22:55.349Z,1.00
2018-06-01T13:25:22.875Z,0.80
2018-06-01T13:27:50.769Z,0.95
2018-06-01T13:30:18.294Z,0.90
2018-06-01T13:32:45.817Z,0.90
2018-06-01T13:35:13.642Z,0.95
2018-06-01T13:37:41.973Z,1.00
2018-06-01T13:40:09.614Z,0.88
2018-06-01T13:42:37.532Z,0.80
2018-06-01T13:45:05.168Z,0.60
2018-06-01T13:47:32.807Z,0.60
2018-06-01T13:50:00.379Z,0.70
2018-06-01T13:52:27.894Z,0.70
2018-06-01T13:54:56.062Z,1.00
2018-06-01T13:57:23.688Z,0.95
2018-06-01T13:59:51.210Z,0.90
2018-06-01T14:02:19.014Z,1.25
2018-06-01T14:04:46.609Z,1.87
2018-06-01T14:07:14.128Z,0.90
2018-06-01T14:09:41.998Z,0.80
2018-06-01T14:12:09.961Z,0.90
2018-06-01T14:14:37.539Z,0.82
2018-06-01T14:17:05.631Z,1.35
2018-06-01T14:19:33.193Z,1.00
2018-06-01T14:22:00.728Z,0.70
2018-06-01T14:24:28.590Z,1.17
2018-06-01T14:26:57.187Z,0.60
2018-06-01T14:29:24.745Z,0.70
2018-06-01T14:31:52.487Z,0.82
2018-06-01T14:34:20.098Z,0.90
2018-06-01T14:36:47.622Z,0.77
2018-06-01T14:39:15.252Z,2.17
2018-06-01T14:41:43.126Z,1.02
2018-06-01T14:44:10.999Z,0.82
2018-06-01T14:46:38.579Z,0.88
2018-06-01T14:49:06.436Z,0.93
2018-06-01T14:51:34.297Z,0.80
2018-06-01T14:54:01.830Z,1.00
2018-06-01T14:56:29.721Z,0.75
2018-06-01T14:58:57.582Z,1.05
2018-06-01T15:01:25.118Z,1.00
2018-06-01T15:03:53.018Z,1.08
2018-06-01T15:06:21.494Z,0.90
2018-06-01T15:08:49.014Z,1.08
2018-06-01T15:11:17.609Z,0.70
2018-06-01T15:13:45.408Z,0.65
2018-06-01T15:16:12.932Z,0.77
2018-06-01T15:18:40.949Z,0.80
2018-06-01T15:21:08.695Z,0.77
2018-06-01T15:23:36.221Z,0.93
2018-06-01T15:26:04.086Z,1.00
2018-06-01T15:28:31.978Z,0.70
2018-06-01T15:30:59.494Z,0.60
2018-06-01T15:33:27.362Z,0.62
2018-06-01T15:35:55.463Z,0.82
2018-06-01T15:38:23.755Z,1.20
2018-06-01T15:40:51.692Z,0.90
2018-06-01T15:43:19.517Z,0.80
2018-06-01T15:45:47.105Z,0.70
2018-06-01T15:48:15.878Z,0.82
2018-06-01T15:50:43.726Z,0.88
2018-06-01T15:53:11.250Z,0.82
2018-06-01T15:55:39.106Z,1.08
2018-06-01T15:58:06.709Z,1.20
2018-06-01T16:00:34.438Z,0.90
2018-06-01T16:03:02.330Z,0.80
2018-06-01T16:05:29.858Z,0.85
2018-06-01T16:07:57.739Z,1.00
2018-06-01T16:10:25.687Z,1.00
2018-06-01T16:12:54.073Z,1.90
2018-06-01T16:15:21.943Z,1.40
2018-06-01T16:17:49.767Z,1.25
2018-06-01T16:20:17.567Z,1.40
2018-06-01T16:22:45.078Z,6.53
2018-06-01T16:25:12.803Z,2.78
2018-06-01T16:27:40.330Z,2.90
2018-06-01T16:30:07.853Z,1.60
2018-06-01T16:32:35.909Z,1.60
2018-06-01T16:35:03.426Z,1.60
2018-06-01T16:37:30.958Z,1.77
2018-06-01T16:39:58.824Z,1.90
2018-06-01T16:42:27.203Z,1.90
2018-06-01T16:44:54.733Z,1.95
2018-06-01T16:47:22.586Z,1.80
2018-06-01T16:49:50.224Z,2.30
2018-06-01T16:52:17.751Z,2.37
2018-06-01T16:54:45.759Z,2.17
2018-06-01T16:57:13.278Z,2.30
2018-06-01T16:59:40.843Z,2.40
2018-06-01T17:02:08.727Z,2.17
2018-06-01T17:04:36.258Z,0.95
2018-06-01T17:07:03.783Z,1.50
2018-06-01T17:09:31.850Z,1.25
2018-06-01T17:11:59.367Z,1.25
2018-06-01T17:14:26.885Z,1.20
2018-06-01T17:16:55.309Z,1.60
2018-06-01T17:19:22.970Z,1.60
2018-06-01T17:21:50.676Z,1.20
2018-06-01T17:24:18.810Z,1.50
2018-06-01T17:26:46.347Z,1.20
2018-06-01T17:29:13.942Z,1.20
2018-06-01T17:31:41.906Z,1.05
2018-06-01T17:34:09.493Z,1.20
2018-06-01T17:36:37.008Z,1.30
2018-06-01T17:39:05.837Z,1.43
2018-06-01T17:41:33.830Z,1.33
2018-06-01T17:44:01.352Z,1.33
2018-06-01T17:46:28.994Z,1.30
2018-06-01T17:48:56.929Z,1.30
2018-06-01T17:51:24.867Z,1.30
2018-06-01T17:53:52.571Z,1.40
2018-06-01T17:56:20.175Z,1.73
2018-06-01T17:58:47.701Z,1.00
2018-06-01T18:01:15.250Z,1.30
2018-06-01T18:03:43.054Z,1.60
2018-06-01T18:06:10.565Z,1.20
2018-06-01T18:08:38.146Z,1.30
2018-06-01T18:11:05.670Z,1.40
2018-06-01T18:13:33.227Z,1.47
2018-06-01T18:16:00.786Z,1.30
2018-06-01T18:18:28.586Z,1.27
2018-06-01T18:20:56.107Z,1.57
2018-06-01T18:23:23.903Z,1.70
2018-06-01T18:25:51.432Z,1.30
2018-06-01T18:28:18.949Z,1.23
2018-06-01T18:30:46.761Z,1.40
2018-06-01T18:33:14.283Z,1.40
2018-06-01T18:35:41.893Z,1.50
2018-06-01T18:38:09.504Z,1.50
2018-06-01T18:40:37.020Z,1.40
2018-06-01T18:43:04.538Z,1.60
2018-06-01T18:45:32.135Z,1.30
2018-06-01T18:47:59.913Z,1.40
2018-06-01T18:50:27.433Z,1.40
2018-06-01T18:52:55.090Z,1.63
2018-06-01T18:55:22.724Z,1.93
2018-06-01T18:57:50.282Z,1.63
2018-06-01T19:00:17.999Z,1.20
2018-06-01T19:02:45.882Z,1.40
2018-06-01T19:05:13.438Z,1.43
2018-06-01T19:07:42.218Z,1.30
2018-06-01T19:10:09.754Z,1.70
2018-06-01T19:12:37.314Z,1.20
2018-06-01T19:15:05.454Z,1.10
2018-06-01T19:17:33.114Z,1.90
2018-06-01T19:20:00.724Z,1.20
2018-06-01T19:22:28.519Z,1.37
2018-06-01T19:24:56.438Z,1.40
2018-06-01T19:27:24.226Z,1.30
2018-06-01T19:29:51.893Z,1.27
2018-06-01T19:32:19.411Z,1.60
2018-06-01T19:34:46.978Z,1.23
2018-06-01T19:37:15.093Z,1.50
2018-06-01T19:39:42.610Z,1.00
2018-06-01T19:42:10.403Z,1.10
2018-06-01T19:44:38.017Z,1.17
2018-06-01T19:47:05.549Z,1.20
2018-06-01T19:49:33.391Z,1.07
2018-06-01T19:52:01.293Z,1.13
2018-06-01T19:54:29.042Z,1.10
2018-06-01T19:56:56.688Z,1.13
2018-06-01T19:59:24.593Z,1.13
2018-06-01T20:01:52.111Z,1.40
2018-06-01T20:04:19.970Z,1.10
2018-06-01T20:06:47.714Z,1.20
2018-06-01T20:09:15.230Z,1.17
2018-06-01T20:11:42.965Z,1.20
2018-06-01T20:14:10.642Z,1.20
2018-06-01T20:16:38.164Z,1.20
2018-06-01T20:19:06.858Z,1.50
2018-06-01T20:21:34.909Z,1.03
2018-06-01T20:24:02.459Z,1.30
2018-06-01T20:26:30.497Z,1.20
2018-06-01T20:28:58.095Z,1.20
2018-06-01T20:31:26.535Z,1.20
2018-06-01T20:33:54.361Z,1.40
2018-06-01T20:36:21.998Z,1.07
2018-06-01T20:38:49.555Z,1.27
2018-06-01T20:41:17.078Z,1.30
2018-06-01T20:43:44.871Z,1.13
2018-06-01T20:46:12.389Z,1.10
2018-06-01T20:48:40.051Z,1.40
2018-06-01T20:51:07.631Z,1.20
2018-06-01T20:53:35.148Z,1.00
2018-06-01T20:56:02.721Z,1.53
2018-06-01T20:58:30.605Z,1.33
2018-06-01T21:00:58.126Z,1.50
2018-06-01T21:03:25.646Z,1.33
2018-06-01T21:05:53.289Z,1.30
2018-06-01T21:08:20.803Z,1.40
2018-06-01T21:10:48.321Z,1.20
2018-06-01T21:13:16.629Z,1.00
2018-06-01T21:15:44.293Z,1.10
2018-06-01T21:18:11.816Z,1.13
2018-06-01T21:20:39.942Z,1.13
2018-06-01T21:23:08.107Z,1.17
2018-06-01T21:25:35.618Z,1.40
2018-06-01T21:28:03.350Z,1.43
2018-06-01T21:30:30.867Z,1.17
2018-06-01T21:32:58.386Z,1.20
2018-06-01T21:35:26.222Z,1.20
2018-06-01T21:37:53.749Z,1.47
2018-06-01T21:40:21.261Z,1.27
2018-06-01T21:42:49.178Z,1.10
2018-06-01T21:45:16.919Z,1.10
2018-06-01T21:47:44.440Z,1.40
2018-06-01T21:50:13.114Z,1.20
2018-06-01T21:52:40.753Z,1.10
2018-06-01T21:55:08.277Z,1.30
2018-06-01T21:57:36.371Z,1.13
2018-06-01T22:00:03.922Z,1.30
2018-06-01T22:02:31.447Z,1.30
2018-06-01T22:04:59.409Z,1.20
2018-06-01T22:07:27.745Z,1.07
2018-06-01T22:09:55.258Z,1.20
2018-06-01T22:12:22.928Z,1.40
2018-06-01T22:14:50.445Z,1.07
2018-06-01T22:17:17.954Z,1.27
2018-06-01T22:19:45.638Z,1.40
2018-06-01T22:22:13.158Z,1.40
2018-06-01T22:24:40.748Z,1.60
2018-06-01T22:27:08.651Z,1.37
2018-06-01T22:29:36.528Z,1.50
2018-06-01T22:32:04.049Z,1.20
2018-06-01T22:34:31.658Z,1.30
2018-06-01T22:36:59.177Z,1.20
2018-06-01T22:39:26.690Z,1.67
2018-06-01T22:41:54.349Z,1.50
2018-06-01T22:44:21.867Z,1.30
2018-06-01T22:46:49.384Z,1.57
2018-06-01T22:49:17.440Z,1.57
2018-06-01T22:51:44.954Z,1.43
2018-06-01T22:54:12.469Z,1.50
2018-06-01T22:56:40.629Z,1.47
2018-06-01T22:59:08.213Z,1.37
2018-06-01T23:01:36.465Z,1.40
2018-06-01T23:04:04.662Z,1.50
2018-06-01T23:06:32.182Z,1.53
2018-06-01T23:08:59.697Z,1.97
2018-06-01T23:11:27.439Z,1.40
2018-06-01T23:13:54.966Z,1.30
2018-06-01T23:16:22.483Z,1.20
2018-06-01T23:18:50.097Z,1.70
2018-06-01T23:21:17.618Z,1.40
2018-06-01T23:23:45.546Z,1.40
2018-06-01T23:26:13.517Z,1.60
2018-06-01T23:28:41.029Z,1.60
2018-06-01T23:31:09.085Z,1.47
2018-06-01T23:33:37.022Z,1.40
2018-06-01T23:36:04.538Z,1.50
2018-06-01T23:38:32.242Z,1.60
2018-06-01T23:40:59.893Z,1.40
2018-06-01T23:43:27.409Z,1.70
2018-06-01T23:45:54.925Z,1.50
2018-06-01T23:48:22.668Z,1.70
2018-06-01T23:50:50.188Z,1.33
2018-06-01T23:53:17.702Z,1.60
2018-06-01T23:55:45.833Z,1.63
2018-06-01T23:58:13.345Z,1.50
